Latest Coastal Weather Observations for Point Perpendicular

IDN60701

Issued at 6:35 pm EDT Sunday 26 October 2014 (issued every 10 minutes, with the page automatically refreshed every 10 minutes)

About coastal observations | Map of coastal stations | Coastal observations for NSW | Marine services | Other Formats
Station Details ID: 068151 Name: POINT PERPENDICULAR AWS Lat: -35.09 Lon: 150.80 Height: 85.0 m
Data from the previous 72 hours. | See also: Recent months at Point Perpendicular
Date/Time
EDT
Temp

°C
Wind Pressure Rain
since 9am
mm
Weather Cloud Vis
km
Sea
Height
m
Swell
Dir
 
Speed
knots
Gust
knots
hPa Trend Height
m
Period
s
Dir
26/06:30pm 18.1 S 9 14 1011.7 - 0.0 - - - - - - -
26/06:00pm 18.2 S 10 15 1011.4 - 0.0 - - - - - - -
26/05:30pm 18.4 S 11 15 1010.8 - 0.0 - - - - - - -
26/05:00pm 18.8 S 10 16 1010.6 - 0.0 - - - - - - -
26/04:30pm 19.1 S 11 15 1010.2 - 0.0 - - - - - - -
26/04:00pm 19.6 S 10 15 1010.2 - 0.0 - - - - - - -
26/03:30pm 19.6 S 12 17 1009.7 - 0.0 - - - - - - -
26/03:00pm 19.6 S 11 17 1009.8 - 0.0 - - - - - - -
26/02:30pm 19.9 S 10 16 1009.8 - 0.0 - - - - - - -
26/02:00pm 19.6 S 11 18 1010.0 - 0.0 - - - - - - -
26/01:30pm 19.9 S 13 19 1010.2 - 0.0 - - - - - - -
26/01:00pm 19.5 S 10 17 1010.1 - 0.0 - - - - - - -
26/12:30pm 19.0 S 12 16 1010.2 - 0.0 - - - - - - -
26/12:00pm 19.2 S 11 15 1010.2 - 0.0 - - - - - - -
26/11:30am 18.4 S 11 15 1010.4 - 0.0 - - - - - - -
26/11:00am 18.2 S 9 14 1010.5 - 0.0 - - - - - - -
26/10:30am 18.3 S 7 12 1010.4 - 0.0 - - - - - - -
26/10:00am 18.4 S 5 9 1010.7 - 0.0 - - - - - - -
26/09:30am 18.0 SW 4 6 1010.7 - 0.0 - - - - - - -
26/09:00am 17.7 WSW 4 6 1010.7 - 0.8 - - - - - - -
26/08:30am 17.5 WSW 4 6 1010.8 - 0.8 - - - - - - -
26/08:00am 17.4 W 2 4 1010.6 - 0.8 - - - - - - -
26/07:30am 17.7 CALM 0 0 1010.5 - 0.8 - - - - - - -
26/07:00am 17.3 WSW 3 5 1010.7 - 0.8 - - - - - - -
26/06:30am 17.4 CALM 0 0 1010.6 - 0.8 - - - - - - -
26/06:00am 17.4 CALM 0 0 1010.7 - 0.8 - - - - - - -
26/05:30am 17.3 CALM 0 0 1010.7 - 0.8 - - - - - - -
26/05:00am 17.3 SSW 2 3 1010.8 - 0.8 - - - - - - -
26/04:30am 17.3 CALM 0 0 1010.9 - 0.8 - - - - - - -
26/04:00am 17.3 CALM 0 0 1011.4 - 0.8 - - - - - - -
26/03:30am 17.3 S 3 4 1011.9 - 0.8 - - - - - - -
26/03:00am 17.2 SSE 4 5 1012.0 - 0.8 - - - - - - -
26/02:30am 17.2 SSE 4 5 1012.8 - 0.8 - - - - - - -
26/02:00am 17.2 SSE 3 5 1013.2 - 0.8 - - - - - - -
26/01:30am 17.2 SSE 4 6 1013.4 - 0.8 - - - - - - -
26/01:00am 17.1 SSE 5 7 1013.8 - 0.8 - - - - - - -
26/12:30am 17.0 CALM 0 2 1014.3 - 0.8 - - - - - - -
26/12:00am 16.9 SE 1 5 1014.7 - 0.8 - - - - - - -
 
Date/Time
EDT
Temp

°C
Wind Pressure Rain
since 9am
mm
Weather Cloud Vis
km
Sea
Height
m
Swell
Dir
 
Speed
knots
Gust
knots
hPa Trend Height
m
Period
s
Dir
25/11:30pm 16.9 CALM 0 0 1015.6 - 0.8 - - - - - - -
25/11:00pm 16.8 E 1 5 1015.7 - 0.8 - - - - - - -
25/10:30pm 17.1 SW 4 7 1017.3 - 0.6 - - - - - - -
25/10:00pm 17.0 SSW 3 4 1016.0 - 0.6 - - - - - - -
25/09:30pm 17.0 SW 4 8 1016.4 - 0.6 - - - - - - -
25/09:00pm 17.2 SW 4 5 1016.8 - 0.6 - - - - - - -
25/08:30pm 17.2 W 4 6 1016.1 - 0.6 - - - - - - -
25/08:00pm 17.1 WNW 3 4 1015.6 - 0.6 - - - - - - -
25/07:30pm 17.2 W 1 4 1015.4 - 0.6 - - - - - - -
25/07:00pm 17.1 SE 5 9 1014.8 - 0.6 - - - - - - -
25/06:30pm 17.2 ESE 7 11 1014.4 - 0.6 - - - - - - -
25/06:00pm 17.5 SSW 11 17 1016.2 - 0.4 - - - - - - -
25/05:30pm 17.7 S 5 8 1014.9 - 0.0 - - - - - - -
25/05:00pm 17.8 S 7 12 1014.9 - 0.0 - - - - - - -
25/04:30pm 18.0 S 9 14 1014.8 - 0.0 - - - - - - -
25/04:00pm 18.1 S 8 13 1014.9 - 0.0 - - - - - - -
25/03:30pm 18.3 S 9 14 1014.6 - 0.0 - - - - - - -
25/03:00pm 18.8 S 11 15 1014.7 - 0.0 - - - - - - -
25/02:30pm 18.8 SSE 12 17 1014.9 - 0.0 - - - - - - -
25/02:00pm 19.1 SSE 11 17 1015.3 - 0.0 - - - - - - -
25/01:30pm 19.1 S 13 18 1015.5 - 0.0 - - - - - - -
25/01:00pm 19.2 S 14 22 1015.5 - 0.0 - - - - - - -
25/12:30pm 18.9 S 14 19 1015.4 - 0.0 - - - - - - -
25/12:00pm 18.8 S 13 19 1015.9 - 0.0 - - - - - - -
25/11:30am 18.6 S 16 22 1015.9 - 0.0 - - - - - - -
25/11:00am 18.6 SSW 17 23 1016.4 - 0.0 - - - - - - -
25/10:30am 18.8 SSW 16 24 1016.0 - 0.0 - - - - - - -
25/10:00am 19.4 SSW 12 17 1015.7 - 0.0 - - - - - - -
25/09:30am 20.1 SW 9 14 1015.3 - 0.0 - - - - - - -
25/09:00am 20.4 SW 8 12 1015.5 - 0.6 - - - - - - -
25/08:30am 19.4 WSW 7 9 1015.3 - 0.6 - - - - - - -
25/08:00am 18.1 SSW 9 13 1015.4 - 0.6 - - - - - - -
25/07:30am 17.9 SSW 6 9 1014.9 - 0.6 - - - - - - -
25/07:00am 18.1 SW 5 7 1014.6 - 0.6 - - - - - - -
25/06:30am 18.4 CALM 0 3 1014.4 - 0.6 - - - - - - -
25/06:00am 18.0 N 5 8 1014.0 - 0.6 - - - - - - -
25/05:30am 18.2 N 8 13 1013.2 - 0.6 - - - - - - -
25/05:00am 18.3 N 10 14 1012.6 - 0.6 - - - - - - -
25/04:30am 18.5 N 13 18 1012.1 - 0.6 - - - - - - -
25/04:00am 18.6 NNE 12 17 1012.0 - 0.6 - - - - - - -
25/03:30am 18.7 NNE 14 19 1011.7 - 0.6 - - - - - - -
25/03:00am 18.7 NNE 15 23 1011.5 - 0.6 - - - - - - -
25/02:30am 18.7 NNE 15 23 1011.5 - 0.6 - - - - - - -
25/02:00am 18.7 N 15 21 1011.8 - 0.6 - - - - - - -
25/01:30am 18.7 N 16 24 1011.8 - 0.6 - - - - - - -
25/01:00am 18.9 NNE 14 21 1012.0 - 0.6 - - - - - - -
25/12:30am 19.0 N 16 23 1012.2 - 0.6 - - - - - - -
25/12:12am 19.0 NNE 17 28 1011.8 - 0.6 - - - - - - -
25/12:00am 18.9 N 15 19 1011.7 - 0.6 - - - - - - -
 
Date/Time
EDT
Temp

°C
Wind Pressure Rain
since 9am
mm
Weather Cloud Vis
km
Sea
Height
m
Swell
Dir
 
Speed
knots
Gust
knots
hPa Trend Height
m
Period
s
Dir
24/11:30pm 18.9 N 11 15 1012.1 - 0.6 - - - - - - -
24/11:00pm 19.7 NNE 13 18 1011.3 - 0.6 - - - - - - -
24/10:30pm 19.5 N 15 22 1011.2 - 0.6 - - - - - - -
24/10:05pm 19.1 N 18 28 1012.0 - 0.6 - - - - - - -
24/10:00pm 19.3 N 17 26 1012.0 - 0.6 - - - - - - -
24/09:52pm 19.2 NNE 19 25 1011.5 - 0.6 - - - - - - -
24/09:30pm 19.5 NNW 12 24 1013.5 - 0.4 - - - - - - -
24/09:25pm 19.4 NNW 14 18 1013.6 - 0.4 - - - - - - -
24/09:23pm 19.3 NNE 20 31 1013.7 - 0.4 - - - - - - -
24/09:12pm 19.1 NNE 17 28 1011.6 - 0.4 - - - - - - -
24/09:00pm 19.1 NNE 18 25 1012.3 - 0.4 - - - - - - -
24/08:30pm 19.8 NNE 17 25 1012.3 - 0.0 - - - - - - -
24/08:05pm 19.5 NNE 17 27 1012.0 - 0.0 - - - - - - -
24/08:00pm 19.5 NNE 19 27 1011.9 - 0.0 - - - - - - -
24/07:30pm 19.5 NNE 19 26 1011.7 - 0.0 - - - - - - -
24/07:00pm 19.8 NNE 19 26 1011.6 - 0.0 - - - - - - -
24/06:30pm 20.0 NNE 18 25 1011.5 - 0.0 - - - - - - -
24/06:00pm 20.2 NNE 19 28 1011.6 - 0.0 - - - - - - -
24/05:30pm 20.4 NNE 20 28 1011.7 - 0.0 - - - - - - -
24/05:00pm 21.1 NNE 19 31 1011.7 - 0.0 - - - - - - -
24/04:31pm 21.2 NNE 21 31 1012.1 - 0.0 - - - - - - -
24/04:30pm 21.2 NNE 21 27 1012.1 - 0.0 - - - - - - -
24/04:00pm 22.3 NNE 21 28 1012.5 - 0.0 - - - - - - -
24/03:50pm 21.9 NNE 22 33 1012.6 - 0.0 - - - - - - -
24/03:30pm 22.3 NNE 21 28 1012.9 - 0.0 - - - - - - -
24/03:02pm 22.5 NNE 19 29 1013.2 - 0.0 - - - - - - -
24/03:00pm 22.4 NNE 20 29 1013.3 - 0.0 - - - - - - -
24/02:57pm 22.2 NNE 19 29 1013.4 - 0.0 - - - - - - -
24/02:30pm 22.2 NNE 20 28 1013.9 - 0.0 - - - - - - -
24/02:00pm 22.4 NNE 21 29 1014.3 - 0.0 - - - - - - -
24/01:30pm 22.2 NNE 23 29 1014.6 - 0.0 - - - - - - -
24/01:15pm 22.6 NNE 21 31 1015.1 - 0.0 - - - - - - -
24/01:00pm 22.2 NNE 18 27 1015.4 - 0.0 - - - - - - -
24/12:55pm 22.4 NNE 19 29 1015.4 - 0.0 - - - - - - -
24/12:30pm 22.4 NNE 20 27 1016.1 - 0.0 - - - - - - -
24/12:00pm 21.9 NNE 20 28 1017.1 - 0.0 - - - - - - -
24/11:30am 22.6 NNE 19 27 1017.6 - 0.0 - - - - - - -
24/11:00am 22.0 NNE 17 26 1018.1 - 0.0 - - - - - - -
24/10:55am 21.8 NNE 16 26 1018.2 - 0.0 - - - - - - -
24/10:30am 20.9 NE 17 25 1018.4 - 0.0 - - - - - - -
24/10:00am 19.7 NE 14 19 1018.8 - 0.0 - - - - - - -
24/09:30am 20.8 NNE 14 21 1019.1 - 0.0 - - - - - - -
24/09:00am 19.6 NE 12 18 1019.2 - 0.0 - - - - - - -
24/08:30am 19.3 NE 12 17 1019.0 - 0.0 - - - - - - -
24/08:00am 18.9 NE 11 17 1018.9 - 0.0 - - - - - - -
24/07:30am 18.8 NE 12 17 1018.6 - 0.0 - - - - - - -
24/07:00am 18.4 NE 9 13 1018.6 - 0.0 - - - - - - -
24/06:30am 18.0 S 2 4 1019.2 - 0.0 - - - - - - -
24/06:00am 17.8 ENE 8 14 1018.2 - 0.0 - - - - - - -
24/05:30am 17.5 N 6 13 1017.5 - 0.0 - - - - - - -
24/05:00am 17.7 N 7 11 1018.3 - 0.0 - - - - - - -
24/04:30am 18.1 N 6 8 1018.8 - 0.0 - - - - - - -
24/04:00am 17.6 NNW 3 6 1018.7 - 0.0 - - - - - - -
24/03:30am 17.9 N 5 9 1018.4 - 0.0 - - - - - - -
24/03:27am 17.9 N 4 7 1018.5 - 0.0 - - - - - - -
24/03:00am 18.1 WNW 5 8 1020.5 - 0.0 - - - - - - -
24/02:30am 18.2 NNE 7 13 1018.9 - 0.0 - - - - - - -
24/02:00am 18.2 NNE 6 8 1018.9 - 0.0 - - - - - - -
24/01:30am 17.9 NNE 5 7 1019.0 - 0.0 - - - - - - -
24/01:00am 18.3 NNE 9 14 1018.6 - 0.0 - - - - - - -
24/12:30am 18.0 NNE 14 19 1018.7 - 0.0 - - - - - - -
24/12:00am 17.9 NNE 11 15 1019.8 - 0.0 - - - - - - -
 
Date/Time
EDT
Temp

°C
Wind Pressure Rain
since 9am
mm
Weather Cloud Vis
km
Sea
Height
m
Swell
Dir
 
Speed
knots
Gust
knots
hPa Trend Height
m
Period
s
Dir
23/11:59pm 17.9 NNE 11 13 1019.8 - 0.0 - - - - - - -
23/11:30pm 18.5 CALM 0 2 1021.9 - 0.0 - - - - - - -
23/11:00pm 18.5 SE 3 5 1021.4 - 0.0 - - - - - - -
23/10:30pm 18.4 SSW 3 5 1021.5 - 0.0 - - - - - - -
23/10:00pm 18.2 CALM 0 0 1021.3 - 0.0 - - - - - - -
23/09:30pm 18.1 NE 4 6 1021.2 - 0.0 - - - - - - -
23/09:00pm 17.9 NNE 1 4 1020.5 - 0.0 - - - - - - -
23/08:30pm 18.0 NNE 3 4 1020.0 - 0.0 - - - - - - -
23/08:00pm 18.2 CALM 0 0 1019.7 - 0.0 - - - - - - -
23/07:30pm 18.8 E 5 7 1019.0 - 0.0 - - - - - - -
23/07:00pm 18.9 E 1 4 1019.1 - 0.0 - - - - - - -

Other Formats:

Comma delimited format used in spreadsheet applications
http://www.bom.gov.au/fwo/IDN60701/IDN60701.95940.axf

JavaScript Object Notation format (JSON) in row-major order
http://www.bom.gov.au/fwo/IDN60701/IDN60701.95940.json